sensor_id;sensor_type;location;lat;lon;timestamp;P1;durP1;ratioP1;P2;durP2;ratioP2
65737;SDS011;52478;51.844;6.582;2022-07-10T00:00:44;5.68;;;1.35;;
65737;SDS011;52478;51.844;6.582;2022-07-10T00:03:11;5.47;;;1.30;;
65737;SDS011;52478;51.844;6.582;2022-07-10T00:05:37;4.75;;;1.35;;
65737;SDS011;52478;51.844;6.582;2022-07-10T00:08:03;7.10;;;1.67;;
65737;SDS011;52478;51.844;6.582;2022-07-10T00:10:31;5.18;;;1.67;;
65737;SDS011;52478;51.844;6.582;2022-07-10T00:12:58;5.13;;;1.38;;
65737;SDS011;52478;51.844;6.582;2022-07-10T00:15:24;5.53;;;1.30;;
65737;SDS011;52478;51.844;6.582;2022-07-10T00:17:51;7.65;;;1.48;;
65737;SDS011;52478;51.844;6.582;2022-07-10T00:20:17;7.53;;;1.35;;
65737;SDS011;52478;51.844;6.582;2022-07-10T00:22:44;6.28;;;1.50;;
65737;SDS011;52478;51.844;6.582;2022-07-10T00:25:11;6.03;;;1.50;;
65737;SDS011;52478;51.844;6.582;2022-07-10T00:27:39;4.72;;;1.30;;
65737;SDS011;52478;51.844;6.582;2022-07-10T00:30:06;6.18;;;1.30;;
65737;SDS011;52478;51.844;6.582;2022-07-10T00:32:33;6.05;;;1.45;;
65737;SDS011;52478;51.844;6.582;2022-07-10T00:34:59;6.15;;;1.10;;
65737;SDS011;52478;51.844;6.582;2022-07-10T00:37:27;5.78;;;1.25;;
65737;SDS011;52478;51.844;6.582;2022-07-10T00:39:53;5.07;;;1.40;;
65737;SDS011;52478;51.844;6.582;2022-07-10T00:42:20;6.28;;;1.23;;
65737;SDS011;52478;51.844;6.582;2022-07-10T00:44:48;4.72;;;1.20;;
65737;SDS011;52478;51.844;6.582;2022-07-10T00:47:15;4.60;;;1.58;;
65737;SDS011;52478;51.844;6.582;2022-07-10T00:49:44;6.88;;;1.40;;
65737;SDS011;52478;51.844;6.582;2022-07-10T00:52:12;5.68;;;1.35;;
65737;SDS011;52478;51.844;6.582;2022-07-10T00:54:40;6.75;;;1.40;;
65737;SDS011;52478;51.844;6.582;2022-07-10T00:57:07;5.40;;;1.63;;
65737;SDS011;52478;51.844;6.582;2022-07-10T00:59:34;5.95;;;1.30;;
65737;SDS011;52478;51.844;6.582;2022-07-10T01:02:02;7.30;;;1.77;;
65737;SDS011;52478;51.844;6.582;2022-07-10T01:04:30;4.75;;;1.27;;
65737;SDS011;52478;51.844;6.582;2022-07-10T01:06:56;5.25;;;1.42;;
65737;SDS011;52478;51.844;6.582;2022-07-10T01:09:22;5.55;;;1.30;;
65737;SDS011;52478;51.844;6.582;2022-07-10T01:11:49;5.25;;;1.90;;
65737;SDS011;52478;51.844;6.582;2022-07-10T01:14:15;5.65;;;1.52;;
65737;SDS011;52478;51.844;6.582;2022-07-10T01:16:42;5.22;;;1.30;;
65737;SDS011;52478;51.844;6.582;2022-07-10T01:19:09;5.40;;;1.23;;
65737;SDS011;52478;51.844;6.582;2022-07-10T01:21:37;5.75;;;1.30;;
65737;SDS011;52478;51.844;6.582;2022-07-10T01:24:04;6.03;;;1.23;;
65737;SDS011;52478;51.844;6.582;2022-07-10T01:26:31;6.30;;;1.35;;
65737;SDS011;52478;51.844;6.582;2022-07-10T01:28:58;5.55;;;1.38;;
65737;SDS011;52478;51.844;6.582;2022-07-10T01:31:25;5.40;;;1.27;;
65737;SDS011;52478;51.844;6.582;2022-07-10T01:36:18;5.82;;;1.30;;
65737;SDS011;52478;51.844;6.582;2022-07-10T01:38:46;5.25;;;1.30;;
65737;SDS011;52478;51.844;6.582;2022-07-10T01:41:12;8.02;;;1.30;;
65737;SDS011;52478;51.844;6.582;2022-07-10T01:43:39;5.15;;;1.25;;
65737;SDS011;52478;51.844;6.582;2022-07-10T01:46:07;5.07;;;1.30;;
65737;SDS011;52478;51.844;6.582;2022-07-10T01:48:36;4.32;;;1.25;;
65737;SDS011;52478;51.844;6.582;2022-07-10T01:51:02;4.75;;;1.30;;
65737;SDS011;52478;51.844;6.582;2022-07-10T01:53:28;4.95;;;1.42;;
65737;SDS011;52478;51.844;6.582;2022-07-10T01:55:56;6.47;;;1.70;;
65737;SDS011;52478;51.844;6.582;2022-07-10T01:58:22;6.65;;;1.33;;
65737;SDS011;52478;51.844;6.582;2022-07-10T02:00:49;5.57;;;1.40;;
65737;SDS011;52478;51.844;6.582;2022-07-10T02:03:15;5.68;;;1.38;;
65737;SDS011;52478;51.844;6.582;2022-07-10T02:05:59;6.05;;;1.30;;
65737;SDS011;52478;51.844;6.582;2022-07-10T02:08:25;4.47;;;1.20;;
65737;SDS011;52478;51.844;6.582;2022-07-10T02:10:52;7.28;;;1.70;;
65737;SDS011;52478;51.844;6.582;2022-07-10T02:13:20;5.68;;;1.30;;
65737;SDS011;52478;51.844;6.582;2022-07-10T02:15:46;4.97;;;1.30;;
65737;SDS011;52478;51.844;6.582;2022-07-10T02:18:13;6.72;;;1.40;;
65737;SDS011;52478;51.844;6.582;2022-07-10T02:20:39;6.30;;;1.50;;
65737;SDS011;52478;51.844;6.582;2022-07-10T02:23:06;5.95;;;1.40;;
65737;SDS011;52478;51.844;6.582;2022-07-10T02:25:32;4.65;;;1.27;;
65737;SDS011;52478;51.844;6.582;2022-07-10T02:27:58;4.40;;;1.40;;
65737;SDS011;52478;51.844;6.582;2022-07-10T02:30:26;7.50;;;1.60;;
65737;SDS011;52478;51.844;6.582;2022-07-10T02:32:52;4.65;;;1.73;;
65737;SDS011;52478;51.844;6.582;2022-07-10T02:35:18;6.68;;;1.50;;
65737;SDS011;52478;51.844;6.582;2022-07-10T02:37:45;6.57;;;1.52;;
65737;SDS011;52478;51.844;6.582;2022-07-10T02:40:11;6.28;;;1.50;;
65737;SDS011;52478;51.844;6.582;2022-07-10T02:42:37;6.43;;;1.35;;
65737;SDS011;52478;51.844;6.582;2022-07-10T02:45:04;6.38;;;1.60;;
65737;SDS011;52478;51.844;6.582;2022-07-10T02:47:32;6.20;;;1.40;;
65737;SDS011;52478;51.844;6.582;2022-07-10T02:49:58;6.30;;;1.50;;
65737;SDS011;52478;51.844;6.582;2022-07-10T02:52:24;4.20;;;1.33;;
65737;SDS011;52478;51.844;6.582;2022-07-10T02:54:50;7.53;;;1.42;;
65737;SDS011;52478;51.844;6.582;2022-07-10T02:57:17;5.30;;;1.30;;
65737;SDS011;52478;51.844;6.582;2022-07-10T02:59:43;6.25;;;1.50;;
65737;SDS011;52478;51.844;6.582;2022-07-10T03:02:09;6.32;;;1.50;;
65737;SDS011;52478;51.844;6.582;2022-07-10T03:04:37;7.05;;;1.50;;
65737;SDS011;52478;51.844;6.582;2022-07-10T03:07:04;4.85;;;1.27;;
65737;SDS011;52478;51.844;6.582;2022-07-10T03:09:30;6.53;;;1.40;;
65737;SDS011;52478;51.844;6.582;2022-07-10T03:11:57;3.95;;;1.20;;
65737;SDS011;52478;51.844;6.582;2022-07-10T03:14:23;5.95;;;1.50;;
65737;SDS011;52478;51.844;6.582;2022-07-10T03:16:49;7.25;;;1.63;;
65737;SDS011;52478;51.844;6.582;2022-07-10T03:19:15;5.55;;;1.30;;
65737;SDS011;52478;51.844;6.582;2022-07-10T03:21:43;5.55;;;1.33;;
65737;SDS011;52478;51.844;6.582;2022-07-10T03:24:10;4.82;;;1.40;;
65737;SDS011;52478;51.844;6.582;2022-07-10T03:26:37;3.92;;;1.25;;
65737;SDS011;52478;51.844;6.582;2022-07-10T03:29:03;5.20;;;1.30;;
65737;SDS011;52478;51.844;6.582;2022-07-10T03:31:29;4.47;;;1.27;;
65737;SDS011;52478;51.844;6.582;2022-07-10T03:33:56;6.28;;;1.30;;
65737;SDS011;52478;51.844;6.582;2022-07-10T03:36:23;6.10;;;1.40;;
65737;SDS011;52478;51.844;6.582;2022-07-10T03:38:50;6.40;;;1.30;;
65737;SDS011;52478;51.844;6.582;2022-07-10T03:41:17;6.03;;;1.42;;
65737;SDS011;52478;51.844;6.582;2022-07-10T03:43:43;5.20;;;1.40;;
65737;SDS011;52478;51.844;6.582;2022-07-10T03:46:09;5.90;;;1.63;;
65737;SDS011;52478;51.844;6.582;2022-07-10T03:48:36;6.18;;;1.60;;
65737;SDS011;52478;51.844;6.582;2022-07-10T03:51:02;6.70;;;1.40;;
65737;SDS011;52478;51.844;6.582;2022-07-10T03:53:28;5.20;;;1.40;;
65737;SDS011;52478;51.844;6.582;2022-07-10T03:55:56;6.32;;;1.40;;
65737;SDS011;52478;51.844;6.582;2022-07-10T03:58:22;5.57;;;1.50;;
65737;SDS011;52478;51.844;6.582;2022-07-10T04:00:48;5.07;;;1.40;;
65737;SDS011;52478;51.844;6.582;2022-07-10T04:03:14;6.00;;;1.48;;
65737;SDS011;52478;51.844;6.582;2022-07-10T04:05:40;6.03;;;1.40;;
65737;SDS011;52478;51.844;6.582;2022-07-10T04:08:06;5.80;;;1.52;;
65737;SDS011;52478;51.844;6.582;2022-07-10T04:10:33;4.68;;;1.38;;
65737;SDS011;52478;51.844;6.582;2022-07-10T04:13:01;6.18;;;1.58;;
65737;SDS011;52478;51.844;6.582;2022-07-10T04:15:28;6.80;;;1.77;;
65737;SDS011;52478;51.844;6.582;2022-07-10T04:17:54;5.75;;;1.40;;
65737;SDS011;52478;51.844;6.582;2022-07-10T04:20:20;6.13;;;1.30;;
65737;SDS011;52478;51.844;6.582;2022-07-10T04:22:47;5.25;;;1.52;;
65737;SDS011;52478;51.844;6.582;2022-07-10T04:27:40;6.88;;;1.52;;
65737;SDS011;52478;51.844;6.582;2022-07-10T04:30:08;6.35;;;1.48;;
65737;SDS011;52478;51.844;6.582;2022-07-10T04:32:34;4.85;;;1.50;;
65737;SDS011;52478;51.844;6.582;2022-07-10T04:35:02;5.68;;;1.33;;
65737;SDS011;52478;51.844;6.582;2022-07-10T04:37:28;5.25;;;1.58;;
65737;SDS011;52478;51.844;6.582;2022-07-10T04:39:55;4.40;;;1.23;;
65737;SDS011;52478;51.844;6.582;2022-07-10T04:42:21;4.72;;;1.30;;
65737;SDS011;52478;51.844;6.582;2022-07-10T04:44:47;5.65;;;1.35;;
65737;SDS011;52478;51.844;6.582;2022-07-10T04:47:15;5.07;;;1.40;;
65737;SDS011;52478;51.844;6.582;2022-07-10T04:49:41;5.70;;;1.50;;
65737;SDS011;52478;51.844;6.582;2022-07-10T04:52:07;7.22;;;1.60;;
65737;SDS011;52478;51.844;6.582;2022-07-10T04:54:34;5.65;;;1.40;;
65737;SDS011;52478;51.844;6.582;2022-07-10T04:57:00;5.20;;;1.55;;
65737;SDS011;52478;51.844;6.582;2022-07-10T04:59:26;5.07;;;1.40;;
65737;SDS011;52478;51.844;6.582;2022-07-10T05:01:53;4.97;;;1.48;;
65737;SDS011;52478;51.844;6.582;2022-07-10T05:04:20;5.78;;;1.52;;
65737;SDS011;52478;51.844;6.582;2022-07-10T05:06:47;6.65;;;1.50;;
65737;SDS011;52478;51.844;6.582;2022-07-10T05:09:13;6.93;;;1.60;;
65737;SDS011;52478;51.844;6.582;2022-07-10T05:11:39;5.90;;;1.65;;
65737;SDS011;52478;51.844;6.582;2022-07-10T05:14:05;5.55;;;1.60;;
65737;SDS011;52478;51.844;6.582;2022-07-10T05:16:32;7.28;;;1.48;;
65737;SDS011;52478;51.844;6.582;2022-07-10T05:18:58;10.57;;;1.55;;
65737;SDS011;52478;51.844;6.582;2022-07-10T05:21:25;5.20;;;1.50;;
65737;SDS011;52478;51.844;6.582;2022-07-10T05:23:52;8.98;;;1.58;;
65737;SDS011;52478;51.844;6.582;2022-07-10T05:26:18;6.32;;;1.60;;
65737;SDS011;52478;51.844;6.582;2022-07-10T05:28:45;6.43;;;1.60;;
65737;SDS011;52478;51.844;6.582;2022-07-10T05:31:11;7.78;;;1.77;;
65737;SDS011;52478;51.844;6.582;2022-07-10T05:33:37;5.53;;;1.45;;
65737;SDS011;52478;51.844;6.582;2022-07-10T05:36:06;6.13;;;1.60;;
65737;SDS011;52478;51.844;6.582;2022-07-10T05:38:34;8.43;;;1.58;;
65737;SDS011;52478;51.844;6.582;2022-07-10T05:41:00;7.20;;;1.67;;
65737;SDS011;52478;51.844;6.582;2022-07-10T05:43:26;7.65;;;1.70;;
65737;SDS011;52478;51.844;6.582;2022-07-10T05:45:53;6.25;;;1.45;;
65737;SDS011;52478;51.844;6.582;2022-07-10T05:48:19;6.85;;;1.67;;
65737;SDS011;52478;51.844;6.582;2022-07-10T05:50:45;7.18;;;1.42;;
65737;SDS011;52478;51.844;6.582;2022-07-10T05:53:12;6.65;;;1.70;;
65737;SDS011;52478;51.844;6.582;2022-07-10T05:55:39;7.93;;;1.88;;
65737;SDS011;52478;51.844;6.582;2022-07-10T05:58:06;6.55;;;1.63;;
65737;SDS011;52478;51.844;6.582;2022-07-10T06:00:32;8.77;;;2.28;;
65737;SDS011;52478;51.844;6.582;2022-07-10T06:02:58;6.10;;;1.77;;
65737;SDS011;52478;51.844;6.582;2022-07-10T06:05:25;8.23;;;1.58;;
65737;SDS011;52478;51.844;6.582;2022-07-10T06:07:51;5.03;;;1.40;;
65737;SDS011;52478;51.844;6.582;2022-07-10T06:10:17;6.38;;;1.60;;
65737;SDS011;52478;51.844;6.582;2022-07-10T06:12:45;7.30;;;1.67;;
65737;SDS011;52478;51.844;6.582;2022-07-10T06:15:11;6.75;;;1.45;;
65737;SDS011;52478;51.844;6.582;2022-07-10T06:17:38;5.70;;;1.33;;
65737;SDS011;52478;51.844;6.582;2022-07-10T06:20:04;5.25;;;1.55;;
65737;SDS011;52478;51.844;6.582;2022-07-10T06:22:31;6.00;;;1.42;;
65737;SDS011;52478;51.844;6.582;2022-07-10T06:24:57;7.25;;;1.50;;
65737;SDS011;52478;51.844;6.582;2022-07-10T06:27:24;6.15;;;1.58;;
65737;SDS011;52478;51.844;6.582;2022-07-10T06:29:52;6.32;;;1.50;;
65737;SDS011;52478;51.844;6.582;2022-07-10T06:32:18;4.88;;;1.30;;
65737;SDS011;52478;51.844;6.582;2022-07-10T06:34:44;6.25;;;1.30;;
65737;SDS011;52478;51.844;6.582;2022-07-10T06:37:10;6.70;;;1.60;;
65737;SDS011;52478;51.844;6.582;2022-07-10T06:39:37;6.10;;;1.45;;
65737;SDS011;52478;51.844;6.582;2022-07-10T06:42:03;7.10;;;1.83;;
65737;SDS011;52478;51.844;6.582;2022-07-10T06:44:30;5.80;;;1.58;;
65737;SDS011;52478;51.844;6.582;2022-07-10T06:46:58;5.70;;;1.45;;
65737;SDS011;52478;51.844;6.582;2022-07-10T06:49:42;7.00;;;1.63;;
65737;SDS011;52478;51.844;6.582;2022-07-10T06:54:35;7.07;;;1.83;;
65737;SDS011;52478;51.844;6.582;2022-07-10T06:57:02;5.10;;;1.50;;
65737;SDS011;52478;51.844;6.582;2022-07-10T06:59:28;7.05;;;1.73;;
65737;SDS011;52478;51.844;6.582;2022-07-10T07:01:55;5.05;;;1.50;;
65737;SDS011;52478;51.844;6.582;2022-07-10T07:04:22;6.68;;;1.60;;
65737;SDS011;52478;51.844;6.582;2022-07-10T07:06:49;6.57;;;1.67;;
65737;SDS011;52478;51.844;6.582;2022-07-10T07:09:15;7.55;;;1.80;;
65737;SDS011;52478;51.844;6.582;2022-07-10T07:11:42;7.35;;;1.67;;
65737;SDS011;52478;51.844;6.582;2022-07-10T07:14:08;6.95;;;1.65;;
65737;SDS011;52478;51.844;6.582;2022-07-10T07:16:34;5.70;;;1.45;;
65737;SDS011;52478;51.844;6.582;2022-07-10T07:19:06;5.18;;;1.60;;
65737;SDS011;52478;51.844;6.582;2022-07-10T07:21:34;6.03;;;1.35;;
65737;SDS011;52478;51.844;6.582;2022-07-10T07:24:18;5.75;;;1.45;;
65737;SDS011;52478;51.844;6.582;2022-07-10T07:26:44;5.68;;;1.60;;
65737;SDS011;52478;51.844;6.582;2022-07-10T07:29:12;7.93;;;1.60;;
65737;SDS011;52478;51.844;6.582;2022-07-10T07:31:38;6.53;;;1.60;;
65737;SDS011;52478;51.844;6.582;2022-07-10T07:34:04;5.57;;;1.60;;
65737;SDS011;52478;51.844;6.582;2022-07-10T07:36:31;5.68;;;1.60;;
65737;SDS011;52478;51.844;6.582;2022-07-10T07:38:59;6.75;;;1.60;;
65737;SDS011;52478;51.844;6.582;2022-07-10T07:41:25;5.72;;;1.48;;
65737;SDS011;52478;51.844;6.582;2022-07-10T07:43:52;6.35;;;1.42;;
65737;SDS011;52478;51.844;6.582;2022-07-10T07:46:18;7.20;;;1.80;;
65737;SDS011;52478;51.844;6.582;2022-07-10T07:48:45;5.55;;;1.63;;
65737;SDS011;52478;51.844;6.582;2022-07-10T07:51:12;6.00;;;1.58;;
65737;SDS011;52478;51.844;6.582;2022-07-10T07:53:38;8.23;;;1.88;;
65737;SDS011;52478;51.844;6.582;2022-07-10T07:56:06;5.13;;;1.42;;
65737;SDS011;52478;51.844;6.582;2022-07-10T07:58:32;7.57;;;2.03;;
65737;SDS011;52478;51.844;6.582;2022-07-10T08:00:59;6.93;;;1.75;;
65737;SDS011;52478;51.844;6.582;2022-07-10T08:03:25;5.35;;;1.55;;
65737;SDS011;52478;51.844;6.582;2022-07-10T08:05:52;7.50;;;1.77;;
65737;SDS011;52478;51.844;6.582;2022-07-10T08:08:18;6.47;;;1.70;;
65737;SDS011;52478;51.844;6.582;2022-07-10T08:10:44;7.20;;;1.60;;
65737;SDS011;52478;51.844;6.582;2022-07-10T08:13:13;6.65;;;1.50;;
65737;SDS011;52478;51.844;6.582;2022-07-10T08:15:39;6.00;;;1.80;;
65737;SDS011;52478;51.844;6.582;2022-07-10T08:18:06;5.88;;;1.58;;
65737;SDS011;52478;51.844;6.582;2022-07-10T08:20:32;6.70;;;1.48;;
65737;SDS011;52478;51.844;6.582;2022-07-10T08:22:59;5.00;;;1.40;;
65737;SDS011;52478;51.844;6.582;2022-07-10T08:25:25;5.50;;;1.40;;
65737;SDS011;52478;51.844;6.582;2022-07-10T08:27:52;5.45;;;1.50;;
65737;SDS011;52478;51.844;6.582;2022-07-10T08:30:20;8.60;;;1.63;;
65737;SDS011;52478;51.844;6.582;2022-07-10T08:32:46;7.55;;;1.50;;
65737;SDS011;52478;51.844;6.582;2022-07-10T08:35:12;7.50;;;1.40;;
65737;SDS011;52478;51.844;6.582;2022-07-10T08:37:39;6.70;;;1.55;;
65737;SDS011;52478;51.844;6.582;2022-07-10T08:40:06;6.95;;;1.55;;
65737;SDS011;52478;51.844;6.582;2022-07-10T08:42:33;7.05;;;1.80;;
65737;SDS011;52478;51.844;6.582;2022-07-10T08:45:00;6.40;;;1.58;;
65737;SDS011;52478;51.844;6.582;2022-07-10T08:47:27;7.65;;;1.65;;
65737;SDS011;52478;51.844;6.582;2022-07-10T08:49:56;5.43;;;1.50;;
65737;SDS011;52478;51.844;6.582;2022-07-10T08:52:25;8.48;;;1.65;;
65737;SDS011;52478;51.844;6.582;2022-07-10T08:54:51;4.45;;;1.58;;
65737;SDS011;52478;51.844;6.582;2022-07-10T08:57:18;8.18;;;1.48;;
65737;SDS011;52478;51.844;6.582;2022-07-10T08:59:44;5.85;;;1.50;;
65737;SDS011;52478;51.844;6.582;2022-07-10T09:02:11;5.75;;;1.67;;
65737;SDS011;52478;51.844;6.582;2022-07-10T09:04:38;5.70;;;1.70;;
65737;SDS011;52478;51.844;6.582;2022-07-10T09:07:05;4.95;;;1.27;;
65737;SDS011;52478;51.844;6.582;2022-07-10T09:09:31;7.10;;;2.13;;
65737;SDS011;52478;51.844;6.582;2022-07-10T09:11:58;5.00;;;1.50;;
65737;SDS011;52478;51.844;6.582;2022-07-10T09:14:25;4.97;;;1.50;;
65737;SDS011;52478;51.844;6.582;2022-07-10T09:16:53;6.00;;;1.50;;
65737;SDS011;52478;51.844;6.582;2022-07-10T09:19:20;5.10;;;1.40;;
65737;SDS011;52478;51.844;6.582;2022-07-10T09:21:48;5.60;;;1.42;;
65737;SDS011;52478;51.844;6.582;2022-07-10T09:24:15;5.32;;;1.40;;
65737;SDS011;52478;51.844;6.582;2022-07-10T09:26:46;6.75;;;1.50;;
65737;SDS011;52478;51.844;6.582;2022-07-10T09:29:14;5.10;;;1.48;;
65737;SDS011;52478;51.844;6.582;2022-07-10T09:31:50;4.85;;;1.40;;
65737;SDS011;52478;51.844;6.582;2022-07-10T09:34:16;5.13;;;1.63;;
65737;SDS011;52478;51.844;6.582;2022-07-10T09:36:43;6.30;;;1.40;;
65737;SDS011;52478;51.844;6.582;2022-07-10T09:39:10;4.32;;;1.20;;
65737;SDS011;52478;51.844;6.582;2022-07-10T09:41:37;5.43;;;1.60;;
65737;SDS011;52478;51.844;6.582;2022-07-10T09:44:04;6.22;;;1.50;;
65737;SDS011;52478;51.844;6.582;2022-07-10T09:46:33;5.50;;;1.50;;
65737;SDS011;52478;51.844;6.582;2022-07-10T09:49:06;5.07;;;1.30;;
65737;SDS011;52478;51.844;6.582;2022-07-10T09:51:33;5.43;;;1.30;;
65737;SDS011;52478;51.844;6.582;2022-07-10T09:54:00;4.75;;;1.30;;
65737;SDS011;52478;51.844;6.582;2022-07-10T09:56:30;5.82;;;1.30;;
65737;SDS011;52478;51.844;6.582;2022-07-10T09:58:59;3.85;;;1.30;;
65737;SDS011;52478;51.844;6.582;2022-07-10T10:01:26;4.60;;;1.05;;
65737;SDS011;52478;51.844;6.582;2022-07-10T10:06:19;4.88;;;1.27;;
65737;SDS011;52478;51.844;6.582;2022-07-10T10:08:48;6.05;;;1.30;;
65737;SDS011;52478;51.844;6.582;2022-07-10T10:11:18;4.63;;;1.13;;
65737;SDS011;52478;51.844;6.582;2022-07-10T10:13:47;3.88;;;1.27;;
65737;SDS011;52478;51.844;6.582;2022-07-10T10:16:14;5.13;;;1.30;;
65737;SDS011;52478;51.844;6.582;2022-07-10T10:18:41;6.30;;;1.30;;
65737;SDS011;52478;51.844;6.582;2022-07-10T10:21:22;4.15;;;1.08;;
65737;SDS011;52478;51.844;6.582;2022-07-10T10:23:48;5.78;;;1.27;;
65737;SDS011;52478;51.844;6.582;2022-07-10T10:26:15;6.28;;;1.38;;
65737;SDS011;52478;51.844;6.582;2022-07-10T10:28:41;6.53;;;1.30;;
65737;SDS011;52478;51.844;6.582;2022-07-10T10:31:09;5.05;;;1.20;;
65737;SDS011;52478;51.844;6.582;2022-07-10T10:33:43;4.85;;;1.20;;
65737;SDS011;52478;51.844;6.582;2022-07-10T10:36:10;4.45;;;1.27;;
65737;SDS011;52478;51.844;6.582;2022-07-10T10:38:59;4.32;;;1.27;;
65737;SDS011;52478;51.844;6.582;2022-07-10T10:41:26;4.50;;;1.30;;
65737;SDS011;52478;51.844;6.582;2022-07-10T10:46:35;3.42;;;1.10;;
65737;SDS011;52478;51.844;6.582;2022-07-10T10:49:03;3.88;;;1.20;;
65737;SDS011;52478;51.844;6.582;2022-07-10T10:54:12;5.75;;;1.55;;
65737;SDS011;52478;51.844;6.582;2022-07-10T10:56:38;4.97;;;1.35;;
65737;SDS011;52478;51.844;6.582;2022-07-10T10:59:05;4.50;;;1.30;;
65737;SDS011;52478;51.844;6.582;2022-07-10T11:01:31;4.68;;;1.40;;
65737;SDS011;52478;51.844;6.582;2022-07-10T11:04:16;5.00;;;1.38;;
65737;SDS011;52478;51.844;6.582;2022-07-10T11:06:43;5.85;;;1.50;;
65737;SDS011;52478;51.844;6.582;2022-07-10T11:11:36;6.10;;;1.67;;
65737;SDS011;52478;51.844;6.582;2022-07-10T11:14:05;4.00;;;1.38;;
65737;SDS011;52478;51.844;6.582;2022-07-10T11:16:31;5.10;;;1.45;;
65737;SDS011;52478;51.844;6.582;2022-07-10T11:18:58;5.28;;;1.30;;
65737;SDS011;52478;51.844;6.582;2022-07-10T11:21:28;4.60;;;1.52;;
65737;SDS011;52478;51.844;6.582;2022-07-10T11:23:58;4.78;;;1.50;;
65737;SDS011;52478;51.844;6.582;2022-07-10T11:26:34;4.38;;;1.20;;
65737;SDS011;52478;51.844;6.582;2022-07-10T11:29:02;8.52;;;1.50;;
65737;SDS011;52478;51.844;6.582;2022-07-10T11:31:30;5.55;;;1.58;;
65737;SDS011;52478;51.844;6.582;2022-07-10T11:34:02;5.63;;;1.48;;
65737;SDS011;52478;51.844;6.582;2022-07-10T11:36:30;5.13;;;1.38;;
65737;SDS011;52478;51.844;6.582;2022-07-10T11:38:57;6.22;;;1.75;;
65737;SDS011;52478;51.844;6.582;2022-07-10T11:41:24;11.38;;;3.42;;
65737;SDS011;52478;51.844;6.582;2022-07-10T11:43:51;11.50;;;2.55;;
65737;SDS011;52478;51.844;6.582;2022-07-10T11:46:17;9.68;;;2.20;;
65737;SDS011;52478;51.844;6.582;2022-07-10T11:48:44;9.18;;;2.08;;
65737;SDS011;52478;51.844;6.582;2022-07-10T11:51:17;8.00;;;2.00;;
65737;SDS011;52478;51.844;6.582;2022-07-10T11:53:53;7.90;;;1.60;;
65737;SDS011;52478;51.844;6.582;2022-07-10T11:56:20;8.50;;;1.70;;
65737;SDS011;52478;51.844;6.582;2022-07-10T11:58:52;7.53;;;1.85;;
65737;SDS011;52478;51.844;6.582;2022-07-10T12:01:19;6.72;;;1.80;;
65737;SDS011;52478;51.844;6.582;2022-07-10T12:03:52;7.43;;;1.60;;
65737;SDS011;52478;51.844;6.582;2022-07-10T12:06:20;7.30;;;1.83;;
65737;SDS011;52478;51.844;6.582;2022-07-10T12:08:46;7.53;;;2.08;;
65737;SDS011;52478;51.844;6.582;2022-07-10T12:11:15;6.05;;;1.52;;
65737;SDS011;52478;51.844;6.582;2022-07-10T12:13:41;5.40;;;1.60;;
65737;SDS011;52478;51.844;6.582;2022-07-10T12:16:08;6.88;;;1.90;;
65737;SDS011;52478;51.844;6.582;2022-07-10T12:18:34;5.28;;;1.52;;
65737;SDS011;52478;51.844;6.582;2022-07-10T12:21:00;6.72;;;1.90;;
65737;SDS011;52478;51.844;6.582;2022-07-10T12:23:27;6.07;;;1.73;;
65737;SDS011;52478;51.844;6.582;2022-07-10T12:25:54;7.35;;;1.90;;
65737;SDS011;52478;51.844;6.582;2022-07-10T12:28:22;5.15;;;1.77;;
65737;SDS011;52478;51.844;6.582;2022-07-10T12:30:49;5.97;;;2.10;;
65737;SDS011;52478;51.844;6.582;2022-07-10T12:33:16;5.60;;;1.80;;
65737;SDS011;52478;51.844;6.582;2022-07-10T12:35:45;5.72;;;1.85;;
65737;SDS011;52478;51.844;6.582;2022-07-10T12:38:14;6.72;;;1.65;;
65737;SDS011;52478;51.844;6.582;2022-07-10T12:40:40;6.60;;;1.83;;
65737;SDS011;52478;51.844;6.582;2022-07-10T12:43:06;6.93;;;1.88;;
65737;SDS011;52478;51.844;6.582;2022-07-10T12:45:35;4.55;;;1.65;;
65737;SDS011;52478;51.844;6.582;2022-07-10T12:48:01;5.55;;;1.90;;
65737;SDS011;52478;51.844;6.582;2022-07-10T12:50:30;5.60;;;1.80;;
65737;SDS011;52478;51.844;6.582;2022-07-10T12:53:06;5.07;;;1.60;;
65737;SDS011;52478;51.844;6.582;2022-07-10T12:55:36;6.13;;;1.90;;
65737;SDS011;52478;51.844;6.582;2022-07-10T12:58:04;6.82;;;1.70;;
65737;SDS011;52478;51.844;6.582;2022-07-10T13:03:00;6.00;;;1.65;;
65737;SDS011;52478;51.844;6.582;2022-07-10T13:05:27;6.03;;;1.83;;
65737;SDS011;52478;51.844;6.582;2022-07-10T13:08:03;6.72;;;1.70;;
65737;SDS011;52478;51.844;6.582;2022-07-10T13:10:31;5.82;;;1.80;;
65737;SDS011;52478;51.844;6.582;2022-07-10T13:12:58;5.63;;;1.88;;
65737;SDS011;52478;51.844;6.582;2022-07-10T13:15:24;6.22;;;2.00;;
65737;SDS011;52478;51.844;6.582;2022-07-10T13:17:50;5.55;;;2.00;;
65737;SDS011;52478;51.844;6.582;2022-07-10T13:20:18;5.45;;;1.63;;
65737;SDS011;52478;51.844;6.582;2022-07-10T13:22:44;6.05;;;1.60;;
65737;SDS011;52478;51.844;6.582;2022-07-10T13:25:11;6.00;;;1.63;;
65737;SDS011;52478;51.844;6.582;2022-07-10T13:27:37;5.38;;;1.65;;
65737;SDS011;52478;51.844;6.582;2022-07-10T13:32:30;6.47;;;1.73;;
65737;SDS011;52478;51.844;6.582;2022-07-10T13:34:57;6.05;;;1.58;;
65737;SDS011;52478;51.844;6.582;2022-07-10T13:37:24;6.38;;;1.52;;
65737;SDS011;52478;51.844;6.582;2022-07-10T13:39:51;5.55;;;1.80;;
65737;SDS011;52478;51.844;6.582;2022-07-10T13:42:17;5.68;;;1.70;;
65737;SDS011;52478;51.844;6.582;2022-07-10T13:44:43;5.43;;;1.65;;
65737;SDS011;52478;51.844;6.582;2022-07-10T13:47:10;4.93;;;1.65;;
65737;SDS011;52478;51.844;6.582;2022-07-10T13:49:36;5.43;;;1.58;;
65737;SDS011;52478;51.844;6.582;2022-07-10T13:52:03;4.80;;;1.70;;
65737;SDS011;52478;51.844;6.582;2022-07-10T13:54:30;5.32;;;1.60;;
65737;SDS011;52478;51.844;6.582;2022-07-10T13:56:57;6.25;;;1.60;;
65737;SDS011;52478;51.844;6.582;2022-07-10T13:59:23;6.32;;;1.77;;
65737;SDS011;52478;51.844;6.582;2022-07-10T14:01:51;5.80;;;1.55;;
65737;SDS011;52478;51.844;6.582;2022-07-10T14:04:17;5.93;;;1.70;;
65737;SDS011;52478;51.844;6.582;2022-07-10T14:06:43;5.88;;;1.95;;
65737;SDS011;52478;51.844;6.582;2022-07-10T14:09:09;5.18;;;1.42;;
65737;SDS011;52478;51.844;6.582;2022-07-10T14:11:37;5.63;;;1.80;;
65737;SDS011;52478;51.844;6.582;2022-07-10T14:14:04;6.03;;;1.77;;
65737;SDS011;52478;51.844;6.582;2022-07-10T14:16:30;6.25;;;1.90;;
65737;SDS011;52478;51.844;6.582;2022-07-10T14:18:56;5.47;;;1.73;;
65737;SDS011;52478;51.844;6.582;2022-07-10T14:21:22;5.57;;;1.63;;
65737;SDS011;52478;51.844;6.582;2022-07-10T14:23:52;6.00;;;2.28;;
65737;SDS011;52478;51.844;6.582;2022-07-10T14:26:18;5.32;;;1.73;;
65737;SDS011;52478;51.844;6.582;2022-07-10T14:28:46;5.93;;;1.80;;
65737;SDS011;52478;51.844;6.582;2022-07-10T14:31:13;6.43;;;2.00;;
65737;SDS011;52478;51.844;6.582;2022-07-10T14:33:39;8.32;;;2.40;;
65737;SDS011;52478;51.844;6.582;2022-07-10T14:36:06;6.45;;;2.30;;
65737;SDS011;52478;51.844;6.582;2022-07-10T14:38:32;7.82;;;2.22;;
65737;SDS011;52478;51.844;6.582;2022-07-10T14:40:58;6.63;;;2.03;;
65737;SDS011;52478;51.844;6.582;2022-07-10T14:43:25;7.75;;;2.72;;
65737;SDS011;52478;51.844;6.582;2022-07-10T14:45:54;6.38;;;2.30;;
65737;SDS011;52478;51.844;6.582;2022-07-10T14:48:20;6.75;;;3.00;;
65737;SDS011;52478;51.844;6.582;2022-07-10T14:50:47;12.85;;;7.22;;
65737;SDS011;52478;51.844;6.582;2022-07-10T14:53:13;19.30;;;13.80;;
65737;SDS011;52478;51.844;6.582;2022-07-10T14:55:39;33.47;;;26.55;;
65737;SDS011;52478;51.844;6.582;2022-07-10T14:58:06;41.78;;;31.75;;
65737;SDS011;52478;51.844;6.582;2022-07-10T15:00:32;42.60;;;31.33;;
65737;SDS011;52478;51.844;6.582;2022-07-10T15:03:00;56.20;;;42.80;;
65737;SDS011;52478;51.844;6.582;2022-07-10T15:05:26;61.60;;;49.13;;
65737;SDS011;52478;51.844;6.582;2022-07-10T15:07:52;55.17;;;45.13;;
65737;SDS011;52478;51.844;6.582;2022-07-10T15:10:19;35.88;;;25.65;;